createdAt,value
2023-01-15T00:00:16.756Z,99.90
2023-01-15T00:02:44.956Z,99.90
2023-01-15T00:05:13.041Z,99.90
2023-01-15T00:07:41.104Z,99.90
2023-01-15T00:10:10.561Z,99.90
2023-01-15T00:12:39.987Z,99.90
2023-01-15T00:15:08.955Z,99.90
2023-01-15T00:17:37.005Z,99.90
2023-01-15T00:20:05.955Z,99.90
2023-01-15T00:22:34.013Z,99.90
2023-01-15T00:25:19.396Z,99.90
2023-01-15T00:27:48.922Z,99.90
2023-01-15T00:30:18.628Z,99.90
2023-01-15T00:32:46.767Z,99.90
2023-01-15T00:35:17.698Z,99.90
2023-01-15T00:37:46.115Z,99.90
2023-01-15T00:40:15.868Z,99.90
2023-01-15T00:42:45.044Z,99.90
2023-01-15T00:45:24.241Z,99.90
2023-01-15T00:47:52.757Z,99.90
2023-01-15T00:50:22.316Z,99.90
2023-01-15T00:52:50.521Z,99.90
2023-01-15T00:55:19.058Z,99.90
2023-01-15T00:57:47.348Z,99.90
2023-01-15T01:00:16.201Z,99.90
2023-01-15T01:02:45.686Z,99.90
2023-01-15T01:05:14.049Z,99.90
2023-01-15T01:07:42.171Z,99.90
2023-01-15T01:10:11.806Z,99.90
2023-01-15T01:12:40.159Z,99.90
2023-01-15T01:15:09.991Z,99.90
2023-01-15T01:17:38.869Z,99.90
2023-01-15T01:20:10.183Z,99.90
2023-01-15T01:22:38.291Z,1.00
2023-01-15T01:25:07.611Z,1.00
2023-01-15T01:27:36.020Z,1.00
2023-01-15T01:30:04.814Z,1.00
2023-01-15T01:32:34.497Z,1.00
2023-01-15T01:35:03.122Z,1.00
2023-01-15T01:37:32.659Z,1.00
2023-01-15T01:40:00.748Z,1.00
2023-01-15T01:42:28.953Z,1.00
2023-01-15T01:45:02.897Z,1.00
2023-01-15T01:47:32.931Z,1.00
2023-01-15T01:50:04.779Z,1.00
2023-01-15T01:52:41.117Z,1.00
2023-01-15T01:55:10.609Z,1.00
2023-01-15T01:57:40.554Z,1.00
2023-01-15T02:00:11.540Z,1.00
2023-01-15T02:02:45.238Z,1.00
2023-01-15T02:05:16.594Z,1.00
2023-01-15T02:07:46.813Z,1.00
2023-01-15T02:10:16.551Z,1.00
2023-01-15T02:12:50.572Z,1.00
2023-01-15T02:15:25.474Z,1.00
2023-01-15T02:18:00.318Z,1.00
2023-01-15T02:20:36.135Z,1.00
2023-01-15T02:23:24.589Z,1.00
2023-01-15T02:26:09.201Z,1.00
2023-01-15T02:28:41.631Z,1.00
2023-01-15T02:31:16.682Z,1.00
2023-01-15T02:33:50.920Z,1.00
2023-01-15T02:36:23.233Z,1.00
2023-01-15T02:38:57.051Z,1.00
2023-01-15T02:41:32.869Z,1.00
2023-01-15T02:44:04.723Z,1.00
2023-01-15T02:46:36.971Z,1.00
2023-01-15T02:49:12.850Z,1.00
2023-01-15T02:51:47.962Z,1.00
2023-01-15T02:54:20.731Z,1.00
2023-01-15T02:56:50.466Z,1.00
2023-01-15T02:59:26.044Z,1.00
2023-01-15T03:02:02.066Z,1.00
2023-01-15T03:04:35.643Z,1.00
2023-01-15T03:07:10.002Z,1.00
2023-01-15T03:09:39.674Z,1.00
2023-01-15T03:12:15.138Z,1.00
2023-01-15T03:14:57.093Z,1.00
2023-01-15T03:17:29.860Z,1.00
2023-01-15T03:20:03.435Z,1.00
2023-01-15T03:22:34.486Z,1.00
2023-01-15T03:25:06.188Z,1.00
2023-01-15T03:27:40.998Z,1.00
2023-01-15T03:30:19.791Z,1.00
2023-01-15T03:32:49.007Z,1.00
2023-01-15T03:35:43.424Z,1.00
2023-01-15T03:38:13.004Z,1.00
2023-01-15T03:40:49.631Z,1.00
2023-01-15T03:43:42.847Z,1.00
2023-01-15T03:46:22.905Z,1.00
2023-01-15T03:48:58.899Z,1.00
2023-01-15T03:51:38.797Z,1.00
2023-01-15T03:54:12.356Z,1.00
2023-01-15T03:56:55.471Z,1.00
2023-01-15T03:59:30.059Z,1.00
2023-01-15T04:02:08.481Z,1.00
2023-01-15T04:04:37.431Z,1.00
2023-01-15T04:07:07.526Z,1.00
2023-01-15T04:09:39.250Z,1.00
2023-01-15T04:12:09.754Z,1.00
2023-01-15T04:14:41.937Z,1.00
2023-01-15T04:17:17.452Z,1.00
2023-01-15T04:19:45.712Z,1.00
2023-01-15T04:22:14.658Z,1.00
2023-01-15T04:24:43.211Z,1.00
2023-01-15T04:27:11.287Z,1.00
2023-01-15T04:29:39.351Z,1.00
2023-01-15T04:32:08.088Z,1.00
2023-01-15T04:34:37.499Z,1.00
2023-01-15T04:37:05.684Z,1.00
2023-01-15T04:39:34.215Z,1.00
2023-01-15T04:42:20.164Z,1.00
2023-01-15T04:44:48.207Z,1.00
2023-01-15T04:47:16.389Z,1.00
2023-01-15T04:49:45.757Z,1.00
2023-01-15T04:52:13.904Z,1.00
2023-01-15T04:54:42.101Z,1.00
2023-01-15T04:57:12.322Z,1.00
2023-01-15T04:59:40.347Z,1.00
2023-01-15T05:02:08.523Z,1.00
2023-01-15T05:04:36.887Z,1.00
2023-01-15T05:07:07.001Z,1.00
2023-01-15T05:09:35.427Z,1.00
2023-01-15T05:12:03.652Z,1.00
2023-01-15T05:14:31.903Z,1.00
2023-01-15T05:17:00.024Z,1.00
2023-01-15T05:19:28.145Z,1.00
2023-01-15T05:21:56.235Z,1.00
2023-01-15T05:24:25.681Z,1.00
2023-01-15T05:26:55.282Z,1.00
2023-01-15T05:29:23.706Z,1.00
2023-01-15T05:31:51.935Z,1.00
2023-01-15T05:34:20.200Z,1.00
2023-01-15T05:36:48.299Z,1.00
2023-01-15T05:39:16.445Z,1.00
2023-01-15T05:41:51.847Z,1.00
2023-01-15T05:44:23.272Z,1.00
2023-01-15T05:46:52.354Z,1.00
2023-01-15T05:49:22.694Z,1.00
2023-01-15T05:51:51.696Z,1.00
2023-01-15T05:54:21.651Z,1.00
2023-01-15T05:56:51.392Z,1.00
2023-01-15T05:59:21.998Z,1.00
2023-01-15T06:01:50.566Z,1.00
2023-01-15T06:04:21.120Z,1.00
2023-01-15T06:06:50.156Z,1.00
2023-01-15T06:09:18.699Z,1.00
2023-01-15T06:11:47.470Z,1.00
2023-01-15T06:14:17.148Z,1.00
2023-01-15T06:16:45.209Z,1.00
2023-01-15T06:19:15.104Z,1.00
2023-01-15T06:21:43.500Z,1.00
2023-01-15T06:24:11.918Z,1.00
2023-01-15T06:26:40.538Z,1.00
2023-01-15T06:29:08.917Z,1.00
2023-01-15T06:31:38.549Z,1.00
2023-01-15T06:34:06.730Z,1.00
2023-01-15T06:36:35.185Z,1.00
2023-01-15T06:39:05.380Z,1.00
2023-01-15T06:41:51.235Z,1.00
2023-01-15T06:44:37.610Z,1.00
2023-01-15T06:47:23.631Z,1.00
2023-01-15T06:49:54.744Z,1.00
2023-01-15T06:52:23.511Z,1.00
2023-01-15T06:54:51.973Z,1.00
2023-01-15T06:57:20.378Z,1.00
2023-01-15T06:59:48.986Z,1.00
2023-01-15T07:02:18.862Z,1.00
2023-01-15T07:04:47.781Z,1.00
2023-01-15T07:07:16.103Z,1.00
2023-01-15T07:09:44.212Z,1.00
2023-01-15T07:12:12.341Z,1.00
2023-01-15T07:14:40.491Z,99.90
2023-01-15T07:17:08.599Z,1.00
2023-01-15T07:19:38.222Z,1.00
2023-01-15T07:22:06.494Z,1.00
2023-01-15T07:24:35.400Z,1.00
2023-01-15T07:27:03.744Z,1.00
2023-01-15T07:29:32.157Z,1.00
2023-01-15T07:32:00.353Z,1.00
2023-01-15T07:34:28.500Z,1.00
2023-01-15T07:36:57.938Z,1.00
2023-01-15T07:39:26.113Z,1.00
2023-01-15T07:42:11.597Z,1.00
2023-01-15T07:44:57.399Z,1.00
2023-01-15T07:47:44.438Z,1.00
2023-01-15T07:50:14.485Z,1.00
2023-01-15T07:52:44.047Z,1.00
2023-01-15T07:55:13.637Z,1.00
2023-01-15T07:57:42.588Z,1.00
2023-01-15T08:00:13.133Z,1.00
2023-01-15T08:02:41.685Z,1.00
2023-01-15T08:05:11.647Z,1.00
2023-01-15T08:07:40.973Z,1.00
2023-01-15T08:10:12.768Z,1.00
2023-01-15T08:12:58.579Z,1.00
2023-01-15T08:15:27.487Z,1.00
2023-01-15T08:17:55.517Z,1.00
2023-01-15T08:20:25.794Z,1.00
2023-01-15T08:22:54.057Z,1.00
2023-01-15T08:25:25.967Z,1.00
2023-01-15T08:27:54.814Z,1.00
2023-01-15T08:30:26.111Z,1.00
2023-01-15T08:32:54.410Z,1.00
2023-01-15T08:35:22.478Z,1.00
2023-01-15T08:37:50.771Z,1.00
2023-01-15T08:40:19.219Z,1.00
2023-01-15T08:42:48.690Z,1.00
2023-01-15T08:45:16.952Z,1.00
2023-01-15T08:47:45.043Z,1.00
2023-01-15T08:50:13.455Z,1.00
2023-01-15T08:52:41.767Z,1.00
2023-01-15T08:55:10.211Z,1.00
2023-01-15T08:57:38.664Z,1.00
2023-01-15T09:00:10.168Z,1.00
2023-01-15T09:02:38.438Z,1.00
2023-01-15T09:05:07.355Z,1.00
2023-01-15T09:07:37.293Z,1.00
2023-01-15T09:10:06.287Z,1.00
2023-01-15T09:12:34.772Z,1.00
2023-01-15T09:15:03.201Z,1.00
2023-01-15T09:17:34.203Z,1.00
2023-01-15T09:20:03.215Z,1.00
2023-01-15T09:22:31.704Z,1.00
2023-01-15T09:25:00.499Z,1.00
2023-01-15T09:27:29.524Z,1.00
2023-01-15T09:29:58.118Z,1.00
2023-01-15T09:32:26.411Z,1.00
2023-01-15T09:34:55.847Z,1.00
2023-01-15T09:37:23.962Z,1.00
2023-01-15T09:42:36.265Z,99.90
2023-01-15T09:45:27.249Z,99.90
2023-01-15T09:48:19.647Z,99.90
2023-01-15T09:51:00.807Z,99.90
2023-01-15T09:53:45.371Z,99.90
2023-01-15T09:56:20.624Z,99.90
2023-01-15T09:58:49.244Z,99.90
2023-01-15T10:01:20.616Z,99.90
2023-01-15T10:03:55.001Z,99.90
2023-01-15T10:06:27.804Z,99.90
2023-01-15T10:09:05.548Z,99.90
2023-01-15T10:11:57.495Z,99.90
2023-01-15T10:14:40.199Z,99.90
2023-01-15T10:17:21.768Z,99.90
2023-01-15T10:19:50.243Z,1.00
2023-01-15T10:22:30.890Z,1.00
2023-01-15T10:24:59.498Z,1.00
2023-01-15T10:27:33.139Z,1.00
2023-01-15T10:30:06.523Z,1.00
2023-01-15T10:33:00.639Z,1.00
2023-01-15T10:35:40.405Z,1.00
2023-01-15T10:38:16.897Z,1.00
2023-01-15T10:41:07.964Z,1.00
2023-01-15T10:43:49.376Z,1.00
2023-01-15T10:46:19.512Z,1.00
2023-01-15T10:48:51.522Z,1.00
2023-01-15T10:51:22.835Z,1.00
2023-01-15T10:53:56.196Z,1.00
2023-01-15T10:56:34.222Z,1.00
2023-01-15T10:59:12.761Z,1.00
2023-01-15T11:01:41.692Z,1.00
2023-01-15T11:04:13.322Z,1.00
2023-01-15T11:06:42.382Z,1.00
2023-01-15T11:09:21.817Z,1.00
2023-01-15T11:12:09.344Z,1.00
2023-01-15T11:14:57.902Z,1.00
2023-01-15T11:17:47.856Z,1.00
2023-01-15T11:20:26.445Z,1.00
2023-01-15T11:22:55.735Z,1.00
2023-01-15T11:25:30.476Z,1.00
2023-01-15T11:28:00.840Z,1.00
2023-01-15T11:30:32.253Z,1.00
2023-01-15T11:33:04.201Z,1.00
2023-01-15T11:35:33.852Z,1.00
2023-01-15T11:38:06.436Z,1.00
2023-01-15T11:40:35.989Z,1.00
2023-01-15T11:43:21.582Z,1.00
2023-01-15T11:46:08.291Z,1.00
2023-01-15T11:49:02.194Z,1.00
2023-01-15T11:51:32.822Z,1.00
2023-01-15T11:54:04.663Z,1.00
2023-01-15T11:56:36.880Z,1.00
2023-01-15T11:59:12.487Z,1.00
2023-01-15T12:01:50.533Z,1.00
2023-01-15T12:04:37.584Z,1.00
2023-01-15T12:07:12.855Z,1.00
2023-01-15T12:10:13.441Z,1.00
2023-01-15T12:12:58.520Z,1.00
2023-01-15T12:15:45.237Z,1.00
2023-01-15T12:18:48.931Z,1.00
2023-01-15T12:21:43.778Z,1.00
2023-01-15T12:24:34.753Z,13.90
2023-01-15T12:27:15.623Z,94.80
2023-01-15T12:29:51.204Z,99.90
2023-01-15T12:32:23.726Z,93.80
2023-01-15T12:34:56.790Z,99.90
2023-01-15T12:37:28.313Z,99.90
2023-01-15T12:40:06.232Z,99.90
2023-01-15T12:42:54.181Z,99.90
2023-01-15T12:45:28.633Z,99.90
2023-01-15T12:48:03.691Z,99.90
2023-01-15T12:50:39.939Z,99.90
2023-01-15T12:53:14.652Z,37.20
2023-01-15T12:55:49.002Z,1.00
2023-01-15T12:58:40.141Z,13.20
2023-01-15T13:01:16.409Z,1.00
2023-01-15T13:03:57.517Z,1.00
2023-01-15T13:06:28.650Z,95.10
2023-01-15T13:09:02.579Z,20.30
2023-01-15T13:11:30.647Z,99.90
2023-01-15T13:14:01.707Z,10.50
2023-01-15T13:16:40.863Z,1.00
2023-01-15T13:19:32.501Z,2.70
2023-01-15T13:22:07.034Z,1.00
2023-01-15T13:24:57.130Z,99.90
2023-01-15T13:27:35.650Z,99.90
2023-01-15T13:30:16.897Z,99.90
2023-01-15T13:32:50.298Z,99.90
2023-01-15T13:35:29.913Z,99.90
2023-01-15T13:38:00.172Z,99.90
2023-01-15T13:40:32.925Z,99.90
2023-01-15T13:43:01.869Z,99.90
2023-01-15T13:45:37.425Z,99.90
2023-01-15T13:48:09.727Z,99.90
2023-01-15T13:50:42.309Z,99.90
2023-01-15T13:53:18.441Z,99.90
2023-01-15T13:55:53.748Z,99.90
2023-01-15T13:58:26.176Z,1.00
2023-01-15T14:01:08.788Z,1.00
2023-01-15T14:03:39.641Z,1.00
2023-01-15T14:06:09.530Z,1.00
2023-01-15T14:08:43.374Z,1.00
2023-01-15T14:11:37.839Z,1.00
2023-01-15T14:14:37.769Z,1.00
2023-01-15T14:17:21.611Z,1.00
2023-01-15T14:20:11.583Z,1.00
2023-01-15T14:22:58.850Z,1.00
2023-01-15T14:25:45.474Z,1.00
2023-01-15T14:28:27.378Z,1.00
2023-01-15T14:31:15.589Z,1.00
2023-01-15T14:33:56.947Z,1.00
2023-01-15T14:36:30.238Z,1.00
2023-01-15T14:39:01.887Z,1.00
2023-01-15T14:41:32.240Z,1.00
2023-01-15T14:44:01.853Z,1.00
2023-01-15T14:46:41.270Z,1.00
2023-01-15T14:49:30.507Z,1.00
2023-01-15T14:52:00.822Z,1.00
2023-01-15T14:54:30.935Z,1.00
2023-01-15T14:57:01.700Z,1.00
2023-01-15T14:59:38.046Z,1.00
2023-01-15T15:02:14.699Z,1.00
2023-01-15T15:04:47.025Z,1.00
2023-01-15T15:07:19.347Z,63.60
2023-01-15T15:09:51.699Z,1.00
2023-01-15T15:12:30.995Z,1.00
2023-01-15T15:15:08.549Z,99.90
2023-01-15T15:17:45.193Z,98.70
2023-01-15T15:20:25.630Z,62.30
2023-01-15T15:23:00.610Z,1.00
2023-01-15T15:25:32.149Z,1.00
2023-01-15T15:28:05.128Z,4.80
2023-01-15T15:30:35.801Z,49.30
2023-01-15T15:33:06.579Z,99.90
2023-01-15T15:35:35.905Z,99.90
2023-01-15T15:38:07.486Z,99.90
2023-01-15T15:40:37.649Z,99.90
2023-01-15T15:43:31.793Z,99.90
2023-01-15T15:46:17.804Z,99.90
2023-01-15T15:48:53.349Z,99.90
2023-01-15T15:51:29.779Z,99.90
2023-01-15T15:54:07.158Z,99.90
2023-01-15T15:56:36.272Z,99.90
2023-01-15T15:59:05.446Z,99.90
2023-01-15T16:01:38.759Z,99.90
2023-01-15T16:04:07.071Z,99.90
2023-01-15T16:06:36.541Z,99.90
2023-01-15T16:09:11.485Z,99.90
2023-01-15T16:11:40.717Z,99.90
2023-01-15T16:14:16.243Z,1.00
2023-01-15T16:16:46.864Z,1.00
2023-01-15T16:19:19.932Z,1.00
2023-01-15T16:21:49.268Z,1.00
2023-01-15T16:24:27.156Z,1.00
2023-01-15T16:27:02.228Z,1.00
2023-01-15T16:29:33.380Z,1.00
2023-01-15T16:32:02.493Z,1.00
2023-01-15T16:34:33.037Z,99.90
2023-01-15T16:37:02.674Z,99.90
2023-01-15T16:39:40.043Z,99.90
2023-01-15T16:42:26.044Z,99.90
2023-01-15T16:44:56.833Z,99.90
2023-01-15T16:47:26.801Z,99.90
2023-01-15T16:49:58.431Z,85.70
2023-01-15T16:52:45.219Z,1.00
2023-01-15T16:55:45.895Z,1.00
2023-01-15T16:58:19.283Z,1.00
2023-01-15T17:00:49.402Z,1.00
2023-01-15T17:03:20.412Z,1.00
2023-01-15T17:05:51.366Z,1.00
2023-01-15T17:08:21.629Z,1.00
2023-01-15T17:10:56.791Z,1.00
2023-01-15T17:13:34.068Z,1.00
2023-01-15T17:16:05.608Z,1.00
2023-01-15T17:18:34.315Z,1.00
2023-01-15T17:21:02.868Z,1.00
2023-01-15T17:23:35.976Z,1.00
2023-01-15T17:26:06.802Z,1.00
2023-01-15T17:28:35.330Z,1.00
2023-01-15T17:31:04.464Z,1.00
2023-01-15T17:33:32.854Z,1.00
2023-01-15T17:36:01.538Z,1.00
2023-01-15T17:38:29.791Z,1.00
2023-01-15T17:41:00.883Z,1.00
2023-01-15T17:43:30.491Z,1.00
2023-01-15T17:46:00.074Z,1.00
2023-01-15T17:48:28.336Z,1.00
2023-01-15T17:50:56.423Z,1.00
2023-01-15T17:53:24.770Z,1.00
2023-01-15T17:56:10.479Z,1.00
2023-01-15T17:58:57.888Z,1.00
2023-01-15T18:01:46.353Z,1.00
2023-01-15T18:04:37.111Z,1.00
2023-01-15T18:07:05.907Z,1.00
2023-01-15T18:09:35.643Z,1.00
2023-01-15T18:12:03.821Z,1.00
2023-01-15T18:14:33.425Z,1.00
2023-01-15T18:17:02.097Z,1.00
2023-01-15T18:19:30.646Z,1.00
2023-01-15T18:21:58.744Z,1.00
2023-01-15T18:24:26.903Z,1.00
2023-01-15T18:26:55.573Z,1.00
2023-01-15T18:29:23.827Z,1.00
2023-01-15T18:31:53.385Z,1.00
2023-01-15T18:34:22.278Z,1.00
2023-01-15T18:36:50.481Z,1.00
2023-01-15T18:39:18.956Z,1.00
2023-01-15T18:42:04.495Z,1.00
2023-01-15T18:44:50.026Z,1.00
2023-01-15T18:47:19.415Z,1.00
2023-01-15T18:49:49.312Z,1.00
2023-01-15T18:52:35.614Z,1.00
2023-01-15T18:55:03.783Z,1.00
2023-01-15T18:57:34.340Z,1.00
2023-01-15T19:00:03.793Z,1.00
2023-01-15T19:02:33.645Z,1.00
2023-01-15T19:05:01.892Z,1.00
2023-01-15T19:07:30.063Z,1.00
2023-01-15T19:09:58.248Z,1.00
2023-01-15T19:12:26.717Z,1.00
2023-01-15T19:15:12.332Z,1.00
2023-01-15T19:17:59.612Z,1.00
2023-01-15T19:20:27.728Z,1.00
2023-01-15T19:23:05.747Z,1.00
2023-01-15T19:25:39.009Z,1.00
2023-01-15T19:28:08.359Z,1.00
2023-01-15T19:30:38.216Z,1.00
2023-01-15T19:33:08.483Z,1.00
2023-01-15T19:35:37.779Z,1.00
2023-01-15T19:38:08.301Z,1.00
2023-01-15T19:40:40.574Z,1.00
2023-01-15T19:43:26.481Z,1.00
2023-01-15T19:46:12.747Z,1.00
2023-01-15T19:49:00.846Z,1.00
2023-01-15T19:51:48.987Z,1.00
2023-01-15T19:54:37.364Z,1.00
2023-01-15T19:57:05.934Z,1.00
2023-01-15T19:59:34.064Z,1.00
2023-01-15T20:02:03.934Z,1.00
2023-01-15T20:04:33.450Z,1.00
2023-01-15T20:07:01.787Z,1.00
2023-01-15T20:09:29.889Z,1.00
2023-01-15T20:12:15.596Z,1.00
2023-01-15T20:14:45.390Z,1.00
2023-01-15T20:17:15.415Z,1.00
2023-01-15T20:19:44.867Z,1.00
2023-01-15T20:22:13.007Z,1.00
2023-01-15T20:24:43.788Z,1.00
2023-01-15T20:27:13.188Z,1.00
2023-01-15T20:29:41.949Z,1.00
2023-01-15T20:32:10.229Z,1.00
2023-01-15T20:34:39.279Z,1.00
2023-01-15T20:37:10.153Z,1.00
2023-01-15T20:39:38.384Z,1.00
2023-01-15T20:42:24.606Z,1.00
2023-01-15T20:44:55.580Z,1.00
2023-01-15T20:47:43.028Z,1.00
2023-01-15T20:50:15.661Z,1.00
2023-01-15T20:52:48.487Z,1.00
2023-01-15T20:55:17.981Z,1.00
2023-01-15T20:57:47.733Z,1.00
2023-01-15T21:00:19.678Z,1.00
2023-01-15T21:02:48.831Z,1.00
2023-01-15T21:05:17.230Z,1.00
2023-01-15T21:07:46.787Z,1.00
2023-01-15T21:10:15.637Z,1.00
2023-01-15T21:12:44.163Z,1.00
2023-01-15T21:15:13.241Z,1.00
2023-01-15T21:17:42.829Z,1.00
2023-01-15T21:20:13.568Z,1.00
2023-01-15T21:22:41.739Z,1.00
2023-01-15T21:25:13.166Z,1.00
2023-01-15T21:27:41.348Z,1.00
2023-01-15T21:30:10.982Z,1.00
2023-01-15T21:32:39.086Z,1.00
2023-01-15T21:35:08.057Z,1.00
2023-01-15T21:37:36.139Z,1.00
2023-01-15T21:40:04.664Z,1.00
2023-01-15T21:42:51.954Z,1.00
2023-01-15T21:45:20.679Z,1.00
2023-01-15T21:47:49.146Z,1.00
2023-01-15T21:50:20.288Z,1.00
2023-01-15T21:52:49.342Z,1.00
2023-01-15T21:55:17.566Z,1.00
2023-01-15T21:57:48.868Z,1.00
2023-01-15T22:00:20.407Z,1.00
2023-01-15T22:02:49.277Z,1.00
2023-01-15T22:05:17.515Z,1.00
2023-01-15T22:07:45.731Z,1.00
2023-01-15T22:10:14.054Z,1.00
2023-01-15T22:12:43.169Z,1.00
2023-01-15T22:15:15.679Z,1.00
2023-01-15T22:17:43.884Z,1.00
2023-01-15T22:20:12.690Z,1.00
2023-01-15T22:22:40.817Z,1.00
2023-01-15T22:25:13.269Z,1.00
2023-01-15T22:27:42.435Z,1.00
2023-01-15T22:30:15.539Z,1.00
2023-01-15T22:32:43.728Z,1.00
2023-01-15T22:35:12.126Z,1.00
2023-01-15T22:37:40.220Z,1.00
2023-01-15T22:40:09.851Z,1.00
2023-01-15T22:42:38.081Z,1.00
2023-01-15T22:45:07.013Z,1.00
2023-01-15T22:47:36.515Z,1.00
2023-01-15T22:50:04.937Z,1.00
2023-01-15T22:52:33.689Z,1.00
2023-01-15T22:55:01.883Z,1.00
2023-01-15T22:57:31.185Z,1.00
2023-01-15T22:59:59.658Z,1.00
2023-01-15T23:02:41.640Z,1.00
2023-01-15T23:05:12.281Z,1.00
2023-01-15T23:07:41.654Z,1.00
2023-01-15T23:10:13.141Z,1.00
2023-01-15T23:12:41.783Z,1.00
2023-01-15T23:15:13.327Z,1.00
2023-01-15T23:17:41.592Z,1.00
2023-01-15T23:20:13.082Z,1.00
2023-01-15T23:22:41.126Z,1.00
2023-01-15T23:25:10.146Z,1.00
2023-01-15T23:27:38.391Z,1.00
2023-01-15T23:30:07.676Z,1.00
2023-01-15T23:32:35.855Z,1.00
2023-01-15T23:35:04.055Z,1.00
2023-01-15T23:37:33.728Z,1.00
2023-01-15T23:40:01.932Z,1.00
2023-01-15T23:42:47.472Z,1.00
2023-01-15T23:45:32.974Z,1.00
2023-01-15T23:48:01.121Z,1.00
2023-01-15T23:50:29.177Z,1.00
2023-01-15T23:52:58.605Z,1.00
2023-01-15T23:55:26.786Z,1.00
2023-01-15T23:57:54.837Z,1.00
